createdAt,value
2018-02-06T00:00:57.317Z,-3.67
2018-02-06T00:01:57.228Z,-3.63
2018-02-06T00:02:57.144Z,-3.64
2018-02-06T00:03:57.056Z,-3.64
2018-02-06T00:04:56.965Z,-3.57
2018-02-06T00:05:56.880Z,-3.60
2018-02-06T00:06:56.792Z,-3.59
2018-02-06T00:07:56.710Z,-3.60
2018-02-06T00:08:56.618Z,-3.62
2018-02-06T00:09:56.531Z,-3.67
2018-02-06T00:10:56.447Z,-3.69
2018-02-06T00:11:56.354Z,-3.67
2018-02-06T00:12:56.263Z,-3.64
2018-02-06T00:13:56.196Z,-3.67
2018-02-06T00:14:56.106Z,-3.75
2018-02-06T00:15:56.022Z,-3.82
2018-02-06T00:16:55.934Z,-3.86
2018-02-06T00:17:55.843Z,-3.71
2018-02-06T00:18:55.761Z,-3.81
2018-02-06T00:19:55.667Z,-3.86
2018-02-06T00:20:55.827Z,-3.90
2018-02-06T00:21:55.497Z,-3.91
2018-02-06T00:22:55.402Z,-3.90
2018-02-06T00:23:55.323Z,-3.96
2018-02-06T00:24:55.231Z,-3.90
2018-02-06T00:25:55.140Z,-3.99
2018-02-06T00:26:55.062Z,-3.96
2018-02-06T00:27:54.966Z,-3.99
2018-02-06T00:28:54.883Z,-3.97
2018-02-06T00:29:54.798Z,-4.04
2018-02-06T00:30:54.718Z,-3.99
2018-02-06T00:31:54.633Z,-4.00
2018-02-06T00:32:54.543Z,-3.97
2018-02-06T00:33:54.465Z,-3.88
2018-02-06T00:34:54.370Z,-3.86
2018-02-06T00:35:54.293Z,-3.90
2018-02-06T00:36:54.192Z,-3.93
2018-02-06T00:37:54.110Z,-3.91
2018-02-06T00:38:54.017Z,-3.96
2018-02-06T00:39:53.937Z,-3.90
2018-02-06T00:40:53.846Z,-3.91
2018-02-06T00:41:53.755Z,-3.90
2018-02-06T00:42:53.674Z,-3.79
2018-02-06T00:43:53.591Z,-3.86
2018-02-06T00:44:53.493Z,-3.76
2018-02-06T00:45:53.410Z,-3.76
2018-02-06T00:46:53.323Z,-3.81
2018-02-06T00:47:53.236Z,-3.83
2018-02-06T00:48:53.162Z,-3.90
2018-02-06T00:49:53.069Z,-3.88
2018-02-06T00:50:52.999Z,-3.88
2018-02-06T00:51:52.892Z,-3.93
2018-02-06T00:52:52.807Z,-3.96
2018-02-06T00:53:52.727Z,-3.99
2018-02-06T00:54:52.633Z,-3.94
2018-02-06T00:55:52.571Z,-4.03
2018-02-06T00:56:52.461Z,-3.97
2018-02-06T00:57:52.369Z,-3.96
2018-02-06T00:58:52.305Z,-4.03
2018-02-06T00:59:52.198Z,-4.04
2018-02-06T01:00:52.110Z,-4.04
2018-02-06T01:01:52.022Z,-4.10
2018-02-06T01:02:51.950Z,-3.99
2018-02-06T01:03:51.851Z,-4.14
2018-02-06T01:04:51.779Z,-4.03
2018-02-06T01:05:51.671Z,-4.03
2018-02-06T01:06:51.601Z,-3.94
2018-02-06T01:07:51.494Z,-3.90
2018-02-06T01:08:51.425Z,-3.93
2018-02-06T01:09:51.323Z,-4.14
2018-02-06T01:10:51.248Z,-4.14
2018-02-06T01:11:51.150Z,-4.15
2018-02-06T01:12:51.073Z,-4.07
2018-02-06T01:13:50.990Z,-4.11
2018-02-06T01:14:50.901Z,-4.22
2018-02-06T01:15:50.828Z,-4.17
2018-02-06T01:16:50.722Z,-4.15
2018-02-06T01:17:50.645Z,-4.14
2018-02-06T01:18:50.548Z,-4.12
2018-02-06T01:19:50.474Z,-4.17
2018-02-06T01:20:50.374Z,-4.12
2018-02-06T01:21:50.290Z,-4.11
2018-02-06T01:22:50.204Z,-4.15
2018-02-06T01:23:50.112Z,-4.10
2018-02-06T01:24:50.023Z,-4.22
2018-02-06T01:25:49.941Z,-4.17
2018-02-06T01:26:49.849Z,-4.18
2018-02-06T01:27:49.768Z,-4.17
2018-02-06T01:28:49.677Z,-4.11
2018-02-06T01:29:49.586Z,-4.21
2018-02-06T01:30:49.505Z,-4.20
2018-02-06T01:31:49.410Z,-4.17
2018-02-06T01:32:49.326Z,-4.15
2018-02-06T01:33:49.240Z,-4.22
2018-02-06T01:34:49.148Z,-4.22
2018-02-06T01:35:49.067Z,-4.18
2018-02-06T01:36:48.987Z,-4.15
2018-02-06T01:37:48.899Z,-4.15
2018-02-06T01:38:48.804Z,-4.12
2018-02-06T01:39:48.723Z,-4.25
2018-02-06T01:40:48.893Z,-4.22
2018-02-06T01:41:48.555Z,-4.33
2018-02-06T01:42:48.461Z,-4.32
2018-02-06T01:43:48.383Z,-4.28
2018-02-06T01:44:48.290Z,-4.33
2018-02-06T01:45:48.199Z,-4.35
2018-02-06T01:46:48.118Z,-4.28
2018-02-06T01:47:48.025Z,-4.30
2018-02-06T01:48:47.938Z,-4.39
2018-02-06T01:49:47.859Z,-4.43
2018-02-06T01:50:47.761Z,-4.35
2018-02-06T01:51:47.678Z,-4.39
2018-02-06T01:52:47.599Z,-4.47
2018-02-06T01:53:47.499Z,-4.40
2018-02-06T01:54:47.424Z,-4.39
2018-02-06T01:55:47.326Z,-4.38
2018-02-06T01:56:47.239Z,-4.43
2018-02-06T01:57:47.157Z,-4.47
2018-02-06T01:58:47.080Z,-4.46
2018-02-06T01:59:46.977Z,-4.40
2018-02-06T02:00:47.195Z,-4.39
2018-02-06T02:01:46.806Z,-4.46
2018-02-06T02:02:46.717Z,-4.36
2018-02-06T02:03:46.636Z,-4.42
2018-02-06T02:04:46.542Z,-4.39
2018-02-06T02:05:46.450Z,-4.49
2018-02-06T02:06:46.385Z,-4.33
2018-02-06T02:07:46.279Z,-4.43
2018-02-06T02:08:46.202Z,-4.43
2018-02-06T02:09:46.122Z,-4.49
2018-02-06T02:10:46.026Z,-4.39
2018-02-06T02:11:45.944Z,-4.46
2018-02-06T02:12:45.854Z,-4.46
2018-02-06T02:13:45.770Z,-4.49
2018-02-06T02:14:45.680Z,-4.50
2018-02-06T02:15:45.595Z,-4.57
2018-02-06T02:16:45.503Z,-4.54
2018-02-06T02:17:45.425Z,-4.53
2018-02-06T02:18:45.328Z,-4.51
2018-02-06T02:19:45.248Z,-4.50
2018-02-06T02:20:45.158Z,-4.53
2018-02-06T02:21:45.067Z,-4.56
2018-02-06T02:22:44.981Z,-4.58
2018-02-06T02:23:44.890Z,-4.53
2018-02-06T02:24:44.802Z,-4.51
2018-02-06T02:25:44.720Z,-4.56
2018-02-06T02:26:44.629Z,-4.50
2018-02-06T02:27:44.547Z,-4.54
2018-02-06T02:28:44.461Z,-4.58
2018-02-06T02:29:44.370Z,-4.54
2018-02-06T02:30:44.283Z,-4.56
2018-02-06T02:31:44.204Z,-4.58
2018-02-06T02:32:44.107Z,-4.53
2018-02-06T02:33:44.027Z,-4.54
2018-02-06T02:34:43.934Z,-4.57
2018-02-06T02:35:44.100Z,-4.51
2018-02-06T02:36:43.761Z,-4.60
2018-02-06T02:37:43.671Z,-4.57
2018-02-06T02:38:43.587Z,-4.54
2018-02-06T02:39:43.495Z,-4.54
2018-02-06T02:40:43.406Z,-4.51
2018-02-06T04:38:33.124Z,-4.96
2018-02-06T04:39:33.055Z,-4.86
2018-02-06T04:40:33.196Z,-4.85
2018-02-06T04:41:32.859Z,-4.89
2018-02-06T04:42:32.779Z,-4.92
2018-02-06T04:43:32.687Z,-4.90
2018-02-06T04:44:32.597Z,-5.03
2018-02-06T04:45:32.524Z,-5.07
2018-02-06T04:46:32.423Z,-5.03
2018-02-06T04:47:32.335Z,-5.07
2018-02-06T04:48:32.248Z,-5.08
2018-02-06T04:49:32.157Z,-5.04
2018-02-06T04:50:32.076Z,-5.14
2018-02-06T04:51:31.988Z,-5.11
2018-02-06T04:52:31.899Z,-5.11
2018-02-06T04:53:31.814Z,-5.10
2018-02-06T04:54:31.723Z,-4.97
2018-02-06T04:55:31.639Z,-5.13
2018-02-06T04:56:31.549Z,-5.07
2018-02-06T04:57:31.460Z,-5.06
2018-02-06T04:58:31.372Z,-5.06
2018-02-06T04:59:31.283Z,-5.08
2018-02-06T05:00:31.200Z,-5.08
2018-02-06T05:01:31.116Z,-5.11
2018-02-06T05:02:31.024Z,-5.07
2018-02-06T05:03:30.939Z,-5.07
2018-02-06T05:04:30.851Z,-5.11
2018-02-06T05:05:30.772Z,-5.18
2018-02-06T05:06:30.673Z,-5.08
2018-02-06T05:07:30.598Z,-5.06
2018-02-06T05:08:30.497Z,-5.19
2018-02-06T05:09:30.412Z,-5.19
2018-02-06T05:10:30.325Z,-5.23
2018-02-06T05:11:30.244Z,-5.18
2018-02-06T05:12:30.152Z,-5.19
2018-02-06T05:13:30.065Z,-5.18
2018-02-06T05:14:29.981Z,-5.23
2018-02-06T05:15:29.897Z,-5.23
2018-02-06T05:16:29.802Z,-5.25
2018-02-06T05:17:29.715Z,-5.23
2018-02-06T05:18:29.623Z,-5.33
2018-02-06T05:19:29.543Z,-5.29
2018-02-06T05:20:29.453Z,-5.46
2018-02-06T05:21:29.366Z,-5.43
2018-02-06T05:22:29.280Z,-5.46
2018-02-06T05:23:29.186Z,-5.36
2018-02-06T05:24:29.097Z,-5.37
2018-02-06T05:25:29.026Z,-5.27
2018-02-06T05:26:28.928Z,-5.25
2018-02-06T05:27:28.839Z,-5.23
2018-02-06T05:28:28.752Z,-5.25
2018-02-06T05:29:28.662Z,-5.29
2018-02-06T05:30:28.879Z,-5.30
2018-02-06T05:31:28.489Z,-5.30
2018-02-06T05:32:28.400Z,-5.32
2018-02-06T05:33:28.332Z,-5.33
2018-02-06T05:34:28.224Z,-5.36
2018-02-06T05:35:28.140Z,-5.32
2018-02-06T05:36:28.051Z,-5.33
2018-02-06T05:37:27.966Z,-5.32
2018-02-06T05:38:27.882Z,-5.30
2018-02-06T05:39:27.790Z,-5.43
2018-02-06T05:40:27.951Z,-5.44
2018-02-06T05:41:27.630Z,-5.30
2018-02-06T05:42:27.526Z,-5.27
2018-02-06T05:43:27.457Z,-5.30
2018-02-06T05:44:27.359Z,-5.29
2018-02-06T05:45:27.266Z,-5.33
2018-02-06T05:46:27.179Z,-5.32
2018-02-06T05:47:27.090Z,-5.33
2018-02-06T05:48:27.003Z,-5.30
2018-02-06T05:49:26.928Z,-5.30
2018-02-06T05:50:26.828Z,-5.33
2018-02-06T05:51:26.758Z,-5.43
2018-02-06T05:52:26.662Z,-5.47
2018-02-06T05:53:26.567Z,-5.44
2018-02-06T05:54:26.484Z,-5.44
2018-02-06T05:55:26.396Z,-5.43
2018-02-06T05:56:26.305Z,-5.43
2018-02-06T05:57:26.220Z,-5.39
2018-02-06T05:58:26.131Z,-5.46
2018-02-06T05:59:26.044Z,-5.41
2018-02-06T06:00:25.956Z,-5.33
2018-02-06T06:01:25.877Z,-5.41
2018-02-06T06:02:25.786Z,-5.47
2018-02-06T06:03:25.694Z,-5.46
2018-02-06T06:04:25.607Z,-5.37
2018-02-06T06:05:25.821Z,-5.41
2018-02-06T06:06:25.431Z,-5.43
2018-02-06T06:07:25.356Z,-5.47
2018-02-06T06:08:25.261Z,-5.43
2018-02-06T06:09:25.172Z,-5.51
2018-02-06T06:10:25.084Z,-5.41
2018-02-06T06:11:25.012Z,-5.37
2018-02-06T06:12:24.908Z,-5.39
2018-02-06T06:13:24.811Z,-5.39
2018-02-06T06:14:24.737Z,-5.33
2018-02-06T06:15:24.639Z,-5.44
2018-02-06T06:16:24.553Z,-5.44
2018-02-06T06:17:24.471Z,-5.47
2018-02-06T06:18:24.381Z,-5.35
2018-02-06T06:19:24.287Z,-5.39
2018-02-06T06:20:24.214Z,-5.33
2018-02-06T06:21:24.108Z,-5.43
2018-02-06T06:22:24.025Z,-5.41
2018-02-06T06:23:23.933Z,-5.47
2018-02-06T06:24:23.853Z,-5.41
2018-02-06T06:25:23.772Z,-5.48
2018-02-06T06:26:23.681Z,-5.44
2018-02-06T06:27:23.588Z,-5.44
2018-02-06T06:28:23.516Z,-5.37
2018-02-06T06:29:23.407Z,-5.43
2018-02-06T06:30:23.328Z,-5.47
2018-02-06T06:31:23.235Z,-5.39
2018-02-06T06:32:23.149Z,-5.37
2018-02-06T06:33:23.061Z,-5.37
2018-02-06T06:34:22.970Z,-5.44
2018-02-06T06:35:22.884Z,-5.50
2018-02-06T06:36:22.810Z,-5.46
2018-02-06T06:37:22.711Z,-5.41
2018-02-06T06:38:22.626Z,-5.36
2018-02-06T06:39:22.571Z,-5.41
2018-02-06T06:40:22.462Z,-5.41
2018-02-06T06:41:22.363Z,-5.46
2018-02-06T06:42:22.270Z,-5.47
2018-02-06T06:43:22.186Z,-5.46
2018-02-06T06:44:22.113Z,-5.44
2018-02-06T06:45:22.264Z,-5.46
2018-02-06T06:46:21.927Z,-5.48
2018-02-06T06:47:21.832Z,-5.50
2018-02-06T06:48:21.762Z,-5.54
2018-02-06T06:49:21.661Z,-5.48
2018-02-06T06:50:21.571Z,-5.48
2018-02-06T06:51:21.488Z,-5.46
2018-02-06T06:52:21.412Z,-5.46
2018-02-06T06:53:21.312Z,-5.46
2018-02-06T06:54:21.231Z,-5.53
2018-02-06T06:55:21.137Z,-5.46
2018-02-06T06:56:21.045Z,-5.46
2018-02-06T06:57:20.966Z,-5.47
2018-02-06T06:58:20.885Z,-5.43
2018-02-06T06:59:20.789Z,-5.39
2018-02-06T07:00:20.703Z,-5.39
2018-02-06T07:01:20.610Z,-5.30
2018-02-06T07:02:20.527Z,-5.26
2018-02-06T07:03:20.437Z,-5.19
2018-02-06T07:04:20.354Z,-5.17
2018-02-06T07:05:20.265Z,-5.14
2018-02-06T07:06:20.178Z,-5.22
2018-02-06T07:07:20.092Z,-5.06
2018-02-06T07:08:20.024Z,-5.07
2018-02-06T07:09:19.913Z,-5.10
2018-02-06T07:10:19.828Z,-5.07
2018-02-06T07:11:19.736Z,-5.10
2018-02-06T07:12:19.650Z,-5.10
2018-02-06T07:13:19.569Z,-5.14
2018-02-06T07:14:19.482Z,-5.08
2018-02-06T07:15:19.392Z,-5.06
2018-02-06T07:16:19.303Z,-5.18
2018-02-06T07:17:19.240Z,-5.14
2018-02-06T07:18:19.145Z,-5.14
2018-02-06T07:19:19.036Z,-4.96
2018-02-06T07:20:19.200Z,-5.00
2018-02-06T07:21:18.873Z,-5.07
2018-02-06T07:22:18.775Z,-5.03
2018-02-06T07:23:18.690Z,-4.99
2018-02-06T07:24:18.603Z,-4.99
2018-02-06T07:25:18.514Z,-4.85
2018-02-06T07:26:18.443Z,-4.83
2018-02-06T07:27:18.338Z,-4.79
2018-02-06T07:28:18.253Z,-4.74
2018-02-06T07:29:18.173Z,-4.61
2018-02-06T07:30:18.089Z,-4.54
2018-02-06T07:31:17.997Z,-4.46
2018-02-06T07:32:17.915Z,-4.47
2018-02-06T07:33:17.813Z,-4.42
2018-02-06T07:34:17.740Z,-4.40
2018-02-06T07:35:17.636Z,-4.36
2018-02-06T07:36:17.556Z,-4.39
2018-02-06T07:37:17.475Z,-4.38
2018-02-06T07:38:17.389Z,-4.29
2018-02-06T07:39:17.295Z,-4.33
2018-02-06T07:40:17.208Z,-4.17
2018-02-06T07:41:17.114Z,-4.24
2018-02-06T07:42:17.036Z,-4.20
2018-02-06T07:43:16.940Z,-4.24
2018-02-06T07:44:16.851Z,-4.32
2018-02-06T07:45:17.018Z,-4.32
2018-02-06T07:46:16.691Z,-4.28
2018-02-06T07:47:16.598Z,-4.15
2018-02-06T07:48:16.519Z,-4.11
2018-02-06T07:49:16.415Z,-4.00
2018-02-06T07:50:16.344Z,-3.88
2018-02-06T07:51:16.242Z,-3.90
2018-02-06T07:52:16.166Z,-3.85
2018-02-06T07:53:16.070Z,-3.82
2018-02-06T07:54:15.981Z,-3.79
2018-02-06T07:55:15.893Z,-3.85
2018-02-06T07:56:15.821Z,-3.82
2018-02-06T07:57:15.733Z,-3.83
2018-02-06T07:58:15.638Z,-3.79
2018-02-06T07:59:15.545Z,-3.75
2018-02-06T08:00:15.455Z,-3.75
2018-02-06T08:01:15.387Z,-3.66
2018-02-06T08:02:15.290Z,-3.59
2018-02-06T08:03:15.219Z,-3.63
2018-02-06T08:04:15.120Z,-3.59
2018-02-06T08:05:15.035Z,-3.53
2018-02-06T08:06:14.948Z,-3.52
2018-02-06T08:07:14.855Z,-3.42
2018-02-06T08:08:14.766Z,-3.24
2018-02-06T08:09:14.684Z,-3.38
2018-02-06T08:10:14.592Z,-3.31
2018-02-06T08:11:14.511Z,-3.10
2018-02-06T08:12:14.424Z,-2.88
2018-02-06T08:13:14.332Z,-2.82
2018-02-06T08:14:14.246Z,-2.82
2018-02-06T08:15:14.177Z,-2.78
2018-02-06T08:16:14.066Z,-2.39
2018-02-06T08:17:13.984Z,-1.82
2018-02-06T08:18:13.893Z,-1.45
2018-02-06T08:19:13.851Z,-1.23
2018-02-06T08:20:13.727Z,-1.17
2018-02-06T08:21:13.658Z,-1.22
2018-02-06T08:22:13.547Z,-1.25
2018-02-06T08:23:13.480Z,-0.92
2018-02-06T08:24:13.392Z,-0.72
2018-02-06T08:25:13.296Z,-0.65
2018-02-06T08:26:13.222Z,-0.86
2018-02-06T08:27:13.117Z,-0.85
2018-02-06T08:28:13.033Z,-0.69
2018-02-06T08:29:13.015Z,-0.75
2018-02-06T08:30:12.871Z,-0.83
2018-02-06T08:31:12.850Z,-0.58
2018-02-06T08:33:12.645Z,-0.37
2018-02-06T08:34:12.521Z,-0.08
2018-02-06T08:35:12.448Z,0.15
2018-02-06T08:36:12.344Z,0.36
2018-02-06T08:37:12.270Z,0.24
2018-02-06T08:38:12.198Z,-0.21
2018-02-06T08:39:12.099Z,-0.05
2018-02-06T08:40:12.018Z,0.28
2018-02-06T08:41:11.924Z,0.32
2018-02-06T08:42:11.851Z,0.13
2018-02-06T08:43:11.779Z,0.00
2018-02-06T08:44:11.672Z,-0.37
2018-02-06T08:45:11.584Z,-0.61
2018-02-06T08:46:11.502Z,-0.16
2018-02-06T08:47:11.420Z,0.07
2018-02-06T08:48:11.350Z,0.18
2018-02-06T08:49:11.273Z,0.08
2018-02-06T08:50:11.176Z,-0.33
2018-02-06T08:51:11.084Z,-0.34
2018-02-06T08:52:10.998Z,-0.23
2018-02-06T08:53:10.912Z,0.08
2018-02-06T08:54:10.827Z,0.21
2018-02-06T08:55:10.738Z,0.17
2018-02-06T08:56:10.679Z,0.07
2018-02-06T08:57:10.577Z,0.32
2018-02-06T08:58:10.487Z,0.42
2018-02-06T08:59:10.408Z,0.39
2018-02-06T09:00:10.321Z,0.68
2018-02-06T09:01:10.235Z,0.78
2018-02-06T09:02:10.161Z,0.70
2018-02-06T09:03:10.075Z,0.60
2018-02-06T09:04:10.040Z,0.20
2018-02-06T09:05:09.902Z,0.26
2018-02-06T09:06:09.813Z,0.00
2018-02-06T09:07:09.733Z,0.04
2018-02-06T09:08:09.651Z,0.24
2018-02-06T09:09:09.573Z,0.60
2018-02-06T09:10:09.476Z,1.09
2018-02-06T09:11:09.404Z,1.51
2018-02-06T09:12:09.327Z,1.48
2018-02-06T09:13:09.227Z,1.69
2018-02-06T09:14:09.151Z,1.73
2018-02-06T09:15:09.057Z,2.17
2018-02-06T09:16:08.980Z,2.66
2018-02-06T09:17:08.889Z,2.54
2018-02-06T09:18:08.804Z,2.27
2018-02-06T09:19:08.723Z,1.91
2018-02-06T09:20:08.645Z,1.08
2018-02-06T09:21:08.553Z,1.08
2018-02-06T09:22:08.474Z,0.68
2018-02-06T09:23:08.407Z,1.18
2018-02-06T09:24:08.306Z,1.60
2018-02-06T09:25:08.214Z,1.72
2018-02-06T09:26:08.144Z,1.45
2018-02-06T09:27:08.049Z,1.59
2018-02-06T09:28:07.975Z,1.55
2018-02-06T09:29:07.884Z,0.75
2018-02-06T09:30:07.801Z,0.93
2018-02-06T09:31:07.724Z,1.00
2018-02-06T09:32:07.627Z,1.24
2018-02-06T09:33:07.551Z,1.14
2018-02-06T09:34:07.482Z,0.50
2018-02-06T09:35:07.376Z,0.76
2018-02-06T09:36:07.308Z,0.39
2018-02-06T09:37:07.218Z,0.33
2018-02-06T09:38:07.126Z,-0.14
2018-02-06T09:39:07.045Z,-0.07
2018-02-06T09:40:06.967Z,-0.23
2018-02-06T09:41:06.879Z,-0.39
2018-02-06T09:42:06.796Z,-0.39
2018-02-06T09:43:06.707Z,-0.61
2018-02-06T09:44:06.636Z,-0.52
2018-02-06T09:45:06.557Z,-0.55
2018-02-06T09:46:06.453Z,-0.65
2018-02-06T09:47:06.387Z,-0.54
2018-02-06T09:48:06.292Z,-0.42
2018-02-06T09:49:06.201Z,-0.29
2018-02-06T09:50:06.123Z,-0.23
2018-02-06T09:51:06.028Z,-0.04
2018-02-06T09:52:05.962Z,-0.34
2018-02-06T09:53:05.874Z,-0.26
2018-02-06T09:54:05.779Z,-0.55
2018-02-06T09:55:05.695Z,-0.62
2018-02-06T09:56:05.603Z,-0.69
2018-02-06T09:57:05.530Z,-0.75
2018-02-06T09:58:05.446Z,-0.78
2018-02-06T09:59:05.354Z,-0.65
2018-02-06T10:00:05.271Z,-0.57
2018-02-06T10:01:05.186Z,-0.49
2018-02-06T10:02:05.108Z,-0.44
2018-02-06T10:03:05.024Z,-0.28
2018-02-06T10:04:04.931Z,-0.15
2018-02-06T10:05:04.845Z,0.04
2018-02-06T10:06:04.761Z,-0.01
2018-02-06T10:07:04.682Z,-0.05
2018-02-06T10:08:04.614Z,-0.04
2018-02-06T10:09:04.509Z,0.02
2018-02-06T10:10:04.464Z,0.04
2018-02-06T10:11:04.335Z,-0.23
2018-02-06T10:12:04.256Z,-0.19
2018-02-06T10:13:04.174Z,-0.40
2018-02-06T10:14:04.086Z,-0.49
2018-02-06T10:15:03.999Z,-0.29
2018-02-06T10:16:03.928Z,-0.42
2018-02-06T10:17:03.836Z,-0.37
2018-02-06T10:18:03.758Z,-0.39
2018-02-06T10:19:03.657Z,-0.43
2018-02-06T10:20:03.568Z,-0.40
2018-02-06T10:21:03.479Z,-0.31
2018-02-06T10:22:03.408Z,-0.03
2018-02-06T10:23:03.320Z,-0.16
2018-02-06T10:24:03.237Z,-0.21
2018-02-06T10:25:03.150Z,-0.21
2018-02-06T10:26:03.058Z,-0.26
2018-02-06T10:27:02.992Z,-0.11
2018-02-06T10:28:02.906Z,-0.14
2018-02-06T10:29:02.808Z,-0.05
2018-02-06T10:30:02.727Z,-0.11
2018-02-06T10:31:02.635Z,-0.04
2018-02-06T10:32:02.556Z,0.00
2018-02-06T10:33:02.472Z,0.14
2018-02-06T10:34:02.386Z,-0.03
2018-02-06T10:35:02.308Z,0.08
2018-02-06T10:36:02.214Z,0.10
2018-02-06T10:37:02.137Z,0.11
2018-02-06T10:38:02.051Z,0.10
2018-02-06T10:39:01.961Z,0.00
2018-02-06T10:40:01.885Z,-0.16
2018-02-06T10:41:01.782Z,-0.26
2018-02-06T10:42:01.711Z,-0.15
2018-02-06T10:43:01.623Z,0.11
2018-02-06T10:44:01.542Z,0.08
2018-02-06T10:45:01.453Z,0.02
2018-02-06T10:46:01.360Z,-0.01
2018-02-06T10:47:01.289Z,0.11
2018-02-06T10:48:01.202Z,0.23
2018-02-06T10:49:01.110Z,0.17
2018-02-06T10:50:01.028Z,0.21
2018-02-06T10:51:00.959Z,0.26
2018-02-06T10:52:00.867Z,0.49
2018-02-06T10:53:00.789Z,0.58
2018-02-06T10:54:00.687Z,0.83
2018-02-06T10:55:00.604Z,0.61
2018-02-06T10:56:00.512Z,0.79
2018-02-06T10:57:00.437Z,1.15
2018-02-06T10:58:00.391Z,1.09
2018-02-06T10:59:00.295Z,1.37
2018-02-06T11:00:00.180Z,1.36
2018-02-06T11:01:00.119Z,1.58
2018-02-06T11:02:00.012Z,1.51
2018-02-06T11:02:59.927Z,1.58
2018-02-06T11:03:59.835Z,1.30
2018-02-06T11:04:59.759Z,1.41
2018-02-06T11:05:59.677Z,1.54
2018-02-06T11:06:59.587Z,1.60
2018-02-06T11:07:59.514Z,1.76
2018-02-06T11:08:59.418Z,1.69
2018-02-06T11:09:59.338Z,1.77
2018-02-06T11:10:59.269Z,1.83
2018-02-06T11:11:59.160Z,1.69
2018-02-06T11:12:59.074Z,1.55
2018-02-06T11:13:59.020Z,1.00
2018-02-06T11:14:58.918Z,0.94
2018-02-06T11:15:58.831Z,1.18
2018-02-06T11:16:58.744Z,1.55
2018-02-06T11:17:58.663Z,1.45
2018-02-06T11:18:58.581Z,1.55
2018-02-06T11:19:58.492Z,1.20
2018-02-06T11:20:58.414Z,0.91
2018-02-06T11:21:58.331Z,0.80
2018-02-06T11:22:58.245Z,0.78
2018-02-06T11:23:58.154Z,0.58
2018-02-06T11:24:58.067Z,0.87
2018-02-06T11:25:57.987Z,0.76
2018-02-06T11:26:57.921Z,0.61
2018-02-06T11:27:57.814Z,1.02
2018-02-06T11:28:57.742Z,1.22
2018-02-06T11:29:57.660Z,1.34
2018-02-06T11:30:57.568Z,0.86
2018-02-06T11:31:57.491Z,0.93
2018-02-06T11:32:57.416Z,1.50
2018-02-06T11:33:57.313Z,1.55
2018-02-06T11:34:57.245Z,1.65
2018-02-06T11:35:57.167Z,1.59
2018-02-06T11:36:57.065Z,2.05
2018-02-06T11:37:56.994Z,2.23
2018-02-06T11:38:56.902Z,3.08
2018-02-06T11:39:56.819Z,3.69
2018-02-06T11:40:56.746Z,3.62
2018-02-06T11:41:56.664Z,3.14
2018-02-06T11:42:56.597Z,3.02
2018-02-06T11:43:56.492Z,2.89
2018-02-06T11:44:56.420Z,3.42
2018-02-06T11:45:56.344Z,3.78
2018-02-06T11:46:56.241Z,3.51
2018-02-06T11:47:56.174Z,3.58
2018-02-06T11:48:56.086Z,3.05
2018-02-06T11:49:56.003Z,3.15
2018-02-06T11:50:55.926Z,3.62
2018-02-06T11:51:55.841Z,4.23
2018-02-06T11:52:55.754Z,4.27
2018-02-06T11:53:55.694Z,4.05
2018-02-06T11:54:55.600Z,4.23
2018-02-06T11:55:55.522Z,3.33
2018-02-06T11:56:55.436Z,4.15
2018-02-06T11:57:55.348Z,4.20
2018-02-06T11:58:55.271Z,3.98
2018-02-06T11:59:55.179Z,3.96
2018-02-06T12:00:55.107Z,3.68
2018-02-06T12:01:55.025Z,4.11
2018-02-06T12:02:54.942Z,4.36
2018-02-06T12:03:54.881Z,4.47
2018-02-06T12:04:54.797Z,4.18
2018-02-06T12:05:54.694Z,3.87
2018-02-06T12:06:54.624Z,3.35
2018-02-06T12:07:54.546Z,3.42
2018-02-06T12:08:54.468Z,3.96
2018-02-06T12:09:54.374Z,3.39
2018-02-06T12:10:54.292Z,3.54
2018-02-06T12:11:54.267Z,3.57
2018-02-06T12:12:54.151Z,3.88
2018-02-06T12:13:54.044Z,4.24
2018-02-06T12:14:53.975Z,4.44
2018-02-06T12:15:53.898Z,4.73
2018-02-06T12:16:53.819Z,4.26
2018-02-06T12:17:53.729Z,4.32
2018-02-06T12:18:53.652Z,4.16
2018-02-06T12:19:53.572Z,4.51
2018-02-06T12:20:53.499Z,3.94
2018-02-06T12:21:53.398Z,4.15
2018-02-06T12:22:53.322Z,3.91
2018-02-06T12:23:53.250Z,4.14
2018-02-06T12:24:53.163Z,3.69
2018-02-06T12:25:53.097Z,3.69
2018-02-06T12:26:53.004Z,4.08
2018-02-06T12:27:52.925Z,4.30
2018-02-06T12:28:52.838Z,4.72
2018-02-06T12:29:52.759Z,5.07
2018-02-06T12:30:52.675Z,5.27
2018-02-06T12:31:52.597Z,4.89
2018-02-06T12:32:52.508Z,5.00
2018-02-06T12:33:52.440Z,4.23
2018-02-06T12:34:52.358Z,4.52
2018-02-06T12:35:52.278Z,4.54
2018-02-06T12:36:52.190Z,4.54
2018-02-06T12:37:52.122Z,4.42
2018-02-06T12:38:52.022Z,4.75
2018-02-06T12:39:51.951Z,4.48
2018-02-06T12:40:51.880Z,4.45
2018-02-06T12:41:51.786Z,4.84
2018-02-06T12:42:51.700Z,4.96
2018-02-06T12:43:51.667Z,5.36
2018-02-06T12:44:51.751Z,4.94
2018-02-06T12:45:51.479Z,4.52
2018-02-06T12:46:51.397Z,4.70
2018-02-06T12:47:51.301Z,4.96
2018-02-06T12:48:51.227Z,5.03
2018-02-06T12:49:51.137Z,4.37
2018-02-06T12:50:51.077Z,4.18
2018-02-06T12:51:50.975Z,3.93
2018-02-06T12:52:50.901Z,4.41
2018-02-06T12:53:50.814Z,4.32
2018-02-06T12:54:50.751Z,4.29
2018-02-06T12:55:50.664Z,3.96
2018-02-06T12:56:50.576Z,4.12
2018-02-06T12:57:50.496Z,4.52
2018-02-06T12:58:50.417Z,3.50
2018-02-06T12:59:50.327Z,3.35
2018-02-06T13:00:50.249Z,3.73
2018-02-06T13:01:50.188Z,3.69
2018-02-06T13:02:50.099Z,3.68
2018-02-06T13:03:50.015Z,3.88
2018-02-06T13:04:49.927Z,4.18
2018-02-06T13:05:49.854Z,3.72
2018-02-06T13:06:49.769Z,3.93
2018-02-06T13:07:49.703Z,3.15
2018-02-06T13:08:49.603Z,3.45
2018-02-06T13:09:49.529Z,4.16
2018-02-06T13:10:49.451Z,3.98
2018-02-06T13:11:49.369Z,3.57
2018-02-06T13:12:49.284Z,3.43
2018-02-06T13:13:49.201Z,3.55
2018-02-06T13:14:49.128Z,3.84
2018-02-06T13:15:49.037Z,3.06
2018-02-06T13:16:48.949Z,3.40
2018-02-06T13:17:48.878Z,3.66
2018-02-06T13:18:48.801Z,3.93
2018-02-06T13:19:48.730Z,4.04
2018-02-06T13:20:48.632Z,3.80
2018-02-06T13:21:48.553Z,3.84
2018-02-06T13:22:48.479Z,3.54
2018-02-06T13:23:48.400Z,3.72
2018-02-06T13:24:48.302Z,4.00
2018-02-06T13:25:48.229Z,4.33
2018-02-06T13:26:48.150Z,4.40
2018-02-06T13:27:48.068Z,3.80
2018-02-06T13:28:47.982Z,3.94
2018-02-06T13:29:47.900Z,3.94
2018-02-06T13:30:47.836Z,3.79
2018-02-06T13:31:47.741Z,3.57
2018-02-06T13:32:47.655Z,3.80
2018-02-06T13:33:47.582Z,3.57
2018-02-06T13:34:47.501Z,3.68
2018-02-06T13:35:47.429Z,3.32
2018-02-06T13:36:47.355Z,3.39
2018-02-06T13:37:47.252Z,3.58
2018-02-06T13:38:47.184Z,3.40
2018-02-06T13:39:47.103Z,3.18
2018-02-06T13:40:47.017Z,3.18
2018-02-06T13:41:46.933Z,3.26
2018-02-06T13:42:46.851Z,3.43
2018-02-06T13:43:46.788Z,3.55
2018-02-06T13:44:46.705Z,3.23
2018-02-06T13:45:46.603Z,2.61
2018-02-06T13:46:46.537Z,2.67
2018-02-06T13:47:46.455Z,2.99
2018-02-06T13:48:46.384Z,3.13
2018-02-06T13:49:46.288Z,3.50
2018-02-06T13:50:46.206Z,3.65
2018-02-06T13:51:46.141Z,3.40
2018-02-06T13:52:46.058Z,3.00
2018-02-06T13:53:45.953Z,1.98
2018-02-06T13:54:45.886Z,1.33
2018-02-06T13:55:45.806Z,1.18
2018-02-06T13:56:45.734Z,1.11
2018-02-06T13:57:45.636Z,1.12
2018-02-06T13:58:45.555Z,1.20
2018-02-06T13:59:45.492Z,1.11
2018-02-06T14:00:45.387Z,1.04
2018-02-06T14:01:45.307Z,0.86
2018-02-06T14:02:45.223Z,0.90
2018-02-06T14:03:45.166Z,0.97
2018-02-06T14:04:45.055Z,0.91
2018-02-06T14:05:44.984Z,0.91
2018-02-06T14:06:44.896Z,0.76
2018-02-06T14:07:44.813Z,0.83
2018-02-06T14:08:44.737Z,0.97
2018-02-06T14:09:44.646Z,0.80
2018-02-06T14:10:44.562Z,0.93
2018-02-06T14:11:44.481Z,0.80
2018-02-06T14:12:44.407Z,0.66
2018-02-06T14:13:44.460Z,0.65
2018-02-06T14:14:44.239Z,0.70
2018-02-06T14:15:44.156Z,0.62
2018-02-06T14:16:44.068Z,0.66
2018-02-06T14:17:43.981Z,0.79
2018-02-06T14:18:43.936Z,0.70
2018-02-06T14:19:43.812Z,0.76
2018-02-06T14:20:43.734Z,0.80
2018-02-06T14:21:43.710Z,0.73
2018-02-06T14:22:43.564Z,0.62
2018-02-06T14:23:43.495Z,0.75
2018-02-06T14:24:43.400Z,0.73
2018-02-06T14:25:43.308Z,0.69
2018-02-06T14:26:43.240Z,0.80
2018-02-06T14:27:43.152Z,0.68
2018-02-06T14:28:43.085Z,0.65
2018-02-06T14:29:42.990Z,0.78
2018-02-06T14:30:42.889Z,0.73
2018-02-06T14:31:42.819Z,0.80
2018-02-06T14:32:42.741Z,0.78
2018-02-06T14:33:42.636Z,0.79
2018-02-06T14:34:42.566Z,0.73
2018-02-06T14:35:42.473Z,0.66
2018-02-06T14:36:42.384Z,0.69
2018-02-06T14:37:42.313Z,0.68
2018-02-06T14:38:42.225Z,0.58
2018-02-06T14:39:42.194Z,0.47
2018-02-06T14:40:42.065Z,0.46
2018-02-06T14:41:41.965Z,0.46
2018-02-06T14:42:41.892Z,0.33
2018-02-06T14:43:41.809Z,0.32
2018-02-06T14:44:41.710Z,0.47
2018-02-06T14:45:41.631Z,0.51
2018-02-06T14:46:41.567Z,0.42
2018-02-06T14:47:41.466Z,0.38
2018-02-06T14:48:41.375Z,0.26
2018-02-06T14:49:41.296Z,0.38
2018-02-06T14:50:41.210Z,0.36
2018-02-06T14:51:41.128Z,0.35
2018-02-06T14:52:41.047Z,0.36
2018-02-06T14:53:40.953Z,0.36
2018-02-06T14:54:40.872Z,0.28
2018-02-06T14:55:40.787Z,0.28
2018-02-06T14:56:40.701Z,0.23
2018-02-06T14:57:40.634Z,0.23
2018-02-06T14:58:40.530Z,0.23
2018-02-06T14:59:40.466Z,0.17
2018-02-06T15:00:40.366Z,0.32